createdAt,value
2024-02-29T00:00:47.579Z,97.99
2024-02-29T00:03:16.591Z,98.95
2024-02-29T00:05:46.034Z,98.95
2024-02-29T00:08:19.933Z,98.40
2024-02-29T00:10:48.772Z,98.52
2024-02-29T00:13:18.794Z,98.89
2024-02-29T00:15:47.363Z,98.88
2024-02-29T00:18:25.862Z,98.61
2024-02-29T00:20:54.440Z,99.17
2024-02-29T00:23:24.936Z,98.27
2024-02-29T00:25:54.114Z,98.53
2024-02-29T00:28:24.260Z,97.80
2024-02-29T00:30:52.934Z,98.26
2024-02-29T00:33:22.705Z,97.74
2024-02-29T00:35:55.448Z,98.12
2024-02-29T00:38:26.568Z,97.18
2024-02-29T00:40:57.604Z,97.80
2024-02-29T00:43:28.505Z,99.09
2024-02-29T00:46:21.432Z,98.66
2024-02-29T00:48:51.224Z,98.86
2024-02-29T00:51:20.774Z,99.00
2024-02-29T00:53:50.645Z,98.47
2024-02-29T00:56:25.033Z,98.54
2024-02-29T00:58:58.682Z,98.47
2024-02-29T01:01:29.547Z,98.69
2024-02-29T01:03:58.103Z,98.68
2024-02-29T01:06:27.736Z,99.47
2024-02-29T01:08:56.715Z,99.18
2024-02-29T01:11:25.258Z,99.13
2024-02-29T01:13:59.002Z,99.53
2024-02-29T01:16:27.658Z,100.00
2024-02-29T01:18:59.047Z,99.32
2024-02-29T01:21:29.868Z,99.67
2024-02-29T01:24:00.042Z,100.00
2024-02-29T01:26:30.789Z,100.00
2024-02-29T01:29:05.699Z,100.00
2024-02-29T01:31:35.142Z,100.00
2024-02-29T01:34:04.465Z,100.00
2024-02-29T01:36:37.347Z,100.00
2024-02-29T01:39:07.452Z,100.00
2024-02-29T01:41:36.820Z,100.00
2024-02-29T01:44:06.842Z,100.00
2024-02-29T01:46:36.028Z,100.00
2024-02-29T01:49:04.978Z,100.00
2024-02-29T01:51:35.792Z,100.00
2024-02-29T01:54:07.497Z,100.00
2024-02-29T01:56:39.603Z,100.00
2024-02-29T01:59:10.037Z,100.00
2024-02-29T02:01:40.275Z,99.96
2024-02-29T02:04:10.398Z,100.00
2024-02-29T02:06:39.839Z,99.13
2024-02-29T02:09:12.048Z,98.70
2024-02-29T02:11:40.703Z,99.84
2024-02-29T02:14:26.419Z,100.00
2024-02-29T02:17:03.242Z,99.13
2024-02-29T02:19:34.586Z,99.63
2024-02-29T02:22:11.867Z,99.28
2024-02-29T02:24:40.338Z,99.90
2024-02-29T02:27:12.680Z,100.00
2024-02-29T02:29:40.967Z,100.00
2024-02-29T02:32:09.741Z,100.00
2024-02-29T02:34:38.184Z,100.00
2024-02-29T02:37:08.427Z,100.00
2024-02-29T02:39:37.231Z,100.00
2024-02-29T02:42:06.611Z,100.00
2024-02-29T02:44:35.380Z,100.00
2024-02-29T02:47:04.785Z,100.00
2024-02-29T02:49:33.061Z,100.00
2024-02-29T02:52:03.534Z,100.00
2024-02-29T02:54:33.426Z,100.00
2024-02-29T02:57:01.776Z,100.00
2024-02-29T02:59:31.691Z,100.00
2024-02-29T03:02:00.243Z,100.00
2024-02-29T03:04:30.087Z,100.00
2024-02-29T03:06:59.606Z,100.00
2024-02-29T03:09:30.255Z,100.00
2024-02-29T03:12:01.999Z,100.00
2024-02-29T03:14:31.682Z,100.00
2024-02-29T03:17:00.580Z,100.00
2024-02-29T03:19:29.272Z,100.00
2024-02-29T03:21:57.667Z,99.70
2024-02-29T03:24:27.357Z,99.50
2024-02-29T03:26:55.940Z,98.74
2024-02-29T03:29:25.682Z,99.17
2024-02-29T03:31:55.051Z,99.23
2024-02-29T03:34:25.086Z,99.43
2024-02-29T03:36:55.746Z,98.67
2024-02-29T03:39:25.615Z,98.24
2024-02-29T03:41:54.614Z,98.83
2024-02-29T03:44:23.595Z,99.14
2024-02-29T03:46:54.042Z,99.86
2024-02-29T03:49:22.648Z,99.11
2024-02-29T03:51:53.618Z,99.74
2024-02-29T03:54:22.666Z,99.52
2024-02-29T03:56:51.186Z,99.58
2024-02-29T03:59:22.372Z,100.00
2024-02-29T04:01:55.307Z,99.87
2024-02-29T04:04:24.274Z,99.69
2024-02-29T04:06:53.905Z,100.00
2024-02-29T04:09:23.788Z,99.76
2024-02-29T04:11:52.245Z,99.35
2024-02-29T04:14:22.355Z,99.85
2024-02-29T04:16:52.618Z,99.70
2024-02-29T04:19:22.454Z,99.88
2024-02-29T04:21:52.443Z,99.50
2024-02-29T04:24:21.890Z,99.67
2024-02-29T04:26:50.602Z,100.00
2024-02-29T04:29:21.542Z,100.00
2024-02-29T04:31:50.430Z,99.84
2024-02-29T04:34:19.796Z,99.89
2024-02-29T04:36:54.929Z,100.00
2024-02-29T04:39:23.089Z,100.00
2024-02-29T04:41:51.795Z,100.00
2024-02-29T04:44:20.973Z,100.00
2024-02-29T04:46:53.266Z,100.00
2024-02-29T04:49:23.164Z,100.00
2024-02-29T04:51:52.892Z,100.00
2024-02-29T04:54:21.525Z,99.85
2024-02-29T04:56:49.815Z,99.61
2024-02-29T04:59:18.279Z,100.00
2024-02-29T05:01:47.443Z,99.89
2024-02-29T05:04:16.453Z,99.62
2024-02-29T05:06:45.048Z,100.00
2024-02-29T05:09:15.319Z,100.00
2024-02-29T05:11:43.871Z,100.00
2024-02-29T05:14:12.248Z,98.25
2024-02-29T05:16:40.910Z,96.28
2024-02-29T05:19:09.464Z,96.31
2024-02-29T05:21:39.326Z,96.16
2024-02-29T05:24:09.253Z,95.63
2024-02-29T05:26:40.303Z,95.56
2024-02-29T05:29:10.622Z,95.33
2024-02-29T05:31:39.980Z,95.14
2024-02-29T05:34:10.585Z,95.51
2024-02-29T05:36:39.485Z,96.46
2024-02-29T05:39:12.271Z,96.18
2024-02-29T05:41:42.720Z,96.00
2024-02-29T05:44:11.537Z,95.69
2024-02-29T05:46:44.498Z,95.19
2024-02-29T05:49:13.761Z,95.43
2024-02-29T05:51:44.089Z,94.77
2024-02-29T05:54:12.928Z,94.66
2024-02-29T05:56:44.157Z,94.54
2024-02-29T05:59:15.606Z,95.33
2024-02-29T06:01:49.346Z,94.37
2024-02-29T06:04:18.494Z,94.38
2024-02-29T06:06:49.843Z,93.50
2024-02-29T06:09:20.602Z,92.57
2024-02-29T06:11:50.717Z,93.19
2024-02-29T06:14:19.726Z,92.89
2024-02-29T06:16:51.341Z,92.13
2024-02-29T06:19:20.513Z,92.08
2024-02-29T06:21:52.349Z,91.44
2024-02-29T06:24:21.290Z,91.21
2024-02-29T06:26:51.018Z,92.83
2024-02-29T06:29:19.288Z,92.26
2024-02-29T06:31:48.621Z,92.15
2024-02-29T06:34:18.333Z,91.20
2024-02-29T06:36:50.198Z,90.76
2024-02-29T06:39:18.747Z,89.34
2024-02-29T06:41:50.173Z,90.26
2024-02-29T06:44:20.824Z,88.35
2024-02-29T06:46:50.717Z,88.21
2024-02-29T06:49:21.601Z,88.63
2024-02-29T06:51:49.916Z,86.69
2024-02-29T06:54:19.218Z,86.75
2024-02-29T06:56:49.034Z,86.62
2024-02-29T06:59:17.454Z,85.19
2024-02-29T07:01:49.157Z,83.49
2024-02-29T07:04:17.621Z,82.34
2024-02-29T07:06:46.313Z,81.83
2024-02-29T07:09:15.454Z,79.99
2024-02-29T07:11:43.641Z,80.09
2024-02-29T07:14:13.419Z,79.32
2024-02-29T07:16:44.144Z,78.62
2024-02-29T07:19:15.950Z,77.77
2024-02-29T07:21:44.325Z,76.46
2024-02-29T07:24:14.002Z,77.47
2024-02-29T07:26:43.237Z,77.90
2024-02-29T07:29:13.745Z,76.68
2024-02-29T07:31:43.975Z,78.25
2024-02-29T07:34:12.544Z,77.74
2024-02-29T07:36:43.292Z,76.54
2024-02-29T07:39:18.822Z,76.84
2024-02-29T07:41:49.034Z,75.54
2024-02-29T07:44:17.351Z,76.42
2024-02-29T07:46:46.144Z,74.93
2024-02-29T07:49:14.707Z,74.02
2024-02-29T07:51:44.725Z,74.17
2024-02-29T07:54:13.605Z,73.36
2024-02-29T07:56:43.395Z,73.90
2024-02-29T07:59:12.122Z,75.41
2024-02-29T08:01:41.438Z,73.71
2024-02-29T08:04:11.076Z,72.64
2024-02-29T08:06:39.922Z,74.26
2024-02-29T08:09:10.854Z,74.89
2024-02-29T08:11:42.271Z,74.08
2024-02-29T08:14:10.787Z,73.49
2024-02-29T08:16:42.010Z,73.51
2024-02-29T08:19:10.767Z,74.52
2024-02-29T08:21:40.732Z,74.25
2024-02-29T08:24:11.763Z,72.54
2024-02-29T08:26:40.229Z,71.89
2024-02-29T08:29:09.309Z,68.70
2024-02-29T08:31:37.884Z,68.06
2024-02-29T08:34:07.420Z,70.46
2024-02-29T08:36:36.342Z,67.63
2024-02-29T08:39:04.997Z,56.50
2024-02-29T08:41:34.847Z,49.78
2024-02-29T08:44:04.500Z,48.98
2024-02-29T08:46:32.951Z,47.90
2024-02-29T08:49:03.932Z,48.64
2024-02-29T08:51:32.921Z,47.94
2024-02-29T08:54:01.612Z,46.01
2024-02-29T08:56:30.027Z,46.04
2024-02-29T08:59:00.372Z,45.22
2024-02-29T09:01:29.981Z,45.91
2024-02-29T09:03:58.511Z,45.50
2024-02-29T09:06:38.862Z,44.91
2024-02-29T09:09:10.288Z,45.01
2024-02-29T09:11:40.208Z,44.72
2024-02-29T09:14:10.150Z,43.72
2024-02-29T09:16:38.704Z,45.25
2024-02-29T09:19:07.437Z,45.21
2024-02-29T09:21:37.171Z,44.44
2024-02-29T09:24:06.896Z,43.63
2024-02-29T09:26:37.055Z,44.43
2024-02-29T09:29:07.738Z,45.35
2024-02-29T09:31:38.592Z,45.27
2024-02-29T09:34:08.755Z,43.79
2024-02-29T09:36:38.918Z,43.98
2024-02-29T09:39:07.642Z,44.55
2024-02-29T09:44:12.929Z,45.04
2024-02-29T09:46:47.984Z,44.77
2024-02-29T09:49:16.956Z,44.49
2024-02-29T09:51:47.356Z,44.54
2024-02-29T09:54:21.060Z,44.37
2024-02-29T09:56:50.132Z,43.94
2024-02-29T09:59:21.212Z,43.05
2024-02-29T10:01:54.112Z,44.49
2024-02-29T10:04:22.946Z,45.44
2024-02-29T10:06:51.868Z,44.73
2024-02-29T10:09:22.396Z,44.62
2024-02-29T10:11:50.790Z,44.67
2024-02-29T10:14:23.188Z,46.84
2024-02-29T10:16:53.652Z,45.13
2024-02-29T10:19:22.785Z,44.58
2024-02-29T10:21:51.956Z,46.01
2024-02-29T10:24:22.717Z,43.83
2024-02-29T10:26:51.980Z,45.30
2024-02-29T10:29:23.984Z,44.24
2024-02-29T10:31:54.874Z,43.64
2024-02-29T10:34:23.844Z,45.78
2024-02-29T10:36:52.587Z,45.31
2024-02-29T10:39:21.252Z,45.39
2024-02-29T10:41:52.395Z,45.22
2024-02-29T10:44:24.135Z,45.93
2024-02-29T10:46:57.441Z,44.83
2024-02-29T10:49:32.887Z,45.26
2024-02-29T10:52:09.025Z,44.80
2024-02-29T10:54:41.699Z,44.72
2024-02-29T10:57:19.124Z,45.89
2024-02-29T10:59:54.808Z,44.73
2024-02-29T11:02:25.393Z,47.49
2024-02-29T11:04:56.673Z,49.29
2024-02-29T11:07:27.443Z,49.56
2024-02-29T11:09:56.196Z,50.10
2024-02-29T11:12:29.588Z,49.49
2024-02-29T11:15:00.498Z,48.78
2024-02-29T11:17:33.787Z,50.87
2024-02-29T11:20:04.896Z,50.08
2024-02-29T11:22:35.781Z,50.33
2024-02-29T11:25:11.014Z,50.80
2024-02-29T11:27:40.257Z,51.34
2024-02-29T11:30:11.766Z,51.98
2024-02-29T11:32:44.073Z,51.98
2024-02-29T11:35:16.114Z,51.83
2024-02-29T11:37:45.993Z,52.17
2024-02-29T11:40:17.453Z,52.14
2024-02-29T11:42:48.936Z,52.31
2024-02-29T11:45:23.961Z,50.86
2024-02-29T11:47:57.623Z,51.97
2024-02-29T11:50:27.173Z,50.42
2024-02-29T11:53:02.489Z,50.56
2024-02-29T11:55:32.425Z,50.89
2024-02-29T11:58:07.255Z,50.15
2024-02-29T12:00:38.853Z,50.63
2024-02-29T12:03:11.991Z,49.74
2024-02-29T12:05:40.968Z,50.80
2024-02-29T12:08:10.691Z,50.96
2024-02-29T12:10:42.048Z,50.90
2024-02-29T12:13:10.756Z,49.61
2024-02-29T12:15:40.859Z,50.84
2024-02-29T12:18:14.647Z,50.21
2024-02-29T12:20:43.139Z,49.80
2024-02-29T12:23:15.780Z,49.89
2024-02-29T12:25:45.631Z,51.28
2024-02-29T12:28:19.068Z,51.09
2024-02-29T12:30:51.339Z,51.51
2024-02-29T12:33:24.523Z,50.56
2024-02-29T12:35:54.612Z,50.91
2024-02-29T12:38:25.098Z,51.37
2024-02-29T12:40:56.142Z,50.48
2024-02-29T12:43:26.150Z,52.04
2024-02-29T12:45:58.983Z,51.31
2024-02-29T12:48:29.410Z,50.57
2024-02-29T12:51:03.460Z,51.86
2024-02-29T12:53:31.892Z,51.01
2024-02-29T12:56:01.914Z,51.13
2024-02-29T12:58:32.281Z,50.13
2024-02-29T13:01:07.837Z,51.26
2024-02-29T13:03:38.444Z,50.52
2024-02-29T13:06:08.205Z,50.01
2024-02-29T13:08:36.671Z,50.85
2024-02-29T13:11:05.266Z,50.85
2024-02-29T13:13:34.167Z,49.15
2024-02-29T13:16:05.703Z,50.04
2024-02-29T13:18:34.722Z,50.16
2024-02-29T13:21:06.331Z,50.55
2024-02-29T13:23:36.123Z,51.36
2024-02-29T13:26:06.131Z,53.44
2024-02-29T13:28:34.887Z,51.91
2024-02-29T13:31:03.739Z,50.89
2024-02-29T13:33:32.260Z,50.13
2024-02-29T13:36:00.628Z,51.30
2024-02-29T13:38:31.654Z,51.79
2024-02-29T13:41:00.443Z,49.09
2024-02-29T13:43:29.465Z,50.49
2024-02-29T13:45:57.937Z,51.34
2024-02-29T13:48:27.053Z,50.28
2024-02-29T13:50:55.515Z,50.62
2024-02-29T13:53:24.094Z,50.70
2024-02-29T13:55:54.101Z,53.31
2024-02-29T13:58:22.918Z,50.22
2024-02-29T14:00:51.581Z,51.16
2024-02-29T14:03:20.580Z,51.03
2024-02-29T14:05:51.014Z,51.35
2024-02-29T14:08:27.572Z,50.62
2024-02-29T14:10:58.853Z,50.99
2024-02-29T14:13:30.698Z,51.46
2024-02-29T14:15:59.388Z,51.56
2024-02-29T14:18:27.960Z,52.63
2024-02-29T14:20:59.395Z,51.73
2024-02-29T14:23:30.931Z,51.15
2024-02-29T14:26:03.846Z,52.21
2024-02-29T14:28:32.793Z,51.03
2024-02-29T14:31:01.670Z,52.49
2024-02-29T14:33:30.102Z,51.53
2024-02-29T14:36:01.341Z,51.92
2024-02-29T14:38:30.017Z,50.62
2024-02-29T14:41:02.799Z,52.31
2024-02-29T14:43:31.472Z,51.53
2024-02-29T14:46:05.598Z,51.89
2024-02-29T14:48:36.337Z,51.12
2024-02-29T14:51:05.327Z,51.43
2024-02-29T14:53:37.104Z,52.37
2024-02-29T14:56:07.941Z,51.36
2024-02-29T14:58:36.673Z,51.15
2024-02-29T15:01:10.520Z,52.16
2024-02-29T15:03:41.590Z,52.43
2024-02-29T15:06:12.666Z,52.79
2024-02-29T15:08:42.512Z,50.71
2024-02-29T15:11:14.013Z,51.64
2024-02-29T15:13:48.264Z,50.92
2024-02-29T15:16:17.842Z,51.02
2024-02-29T15:18:47.061Z,51.61
2024-02-29T15:21:15.677Z,51.58
2024-02-29T15:23:45.907Z,50.92
2024-02-29T15:26:16.599Z,52.10
2024-02-29T15:28:51.040Z,52.57
2024-02-29T15:31:20.876Z,51.38
2024-02-29T15:33:50.556Z,50.83
2024-02-29T15:36:19.229Z,50.73
2024-02-29T15:38:50.601Z,50.85
2024-02-29T15:41:21.416Z,50.98
2024-02-29T15:43:49.915Z,51.72
2024-02-29T15:46:21.547Z,51.31
2024-02-29T15:48:51.261Z,52.42
2024-02-29T15:51:20.053Z,51.77
2024-02-29T15:53:48.420Z,52.56
2024-02-29T15:56:17.605Z,53.25
2024-02-29T15:58:47.780Z,54.17
2024-02-29T16:01:17.121Z,52.45
2024-02-29T16:03:45.874Z,53.36
2024-02-29T16:06:15.631Z,52.97
2024-02-29T16:08:44.536Z,51.62
2024-02-29T16:11:15.299Z,51.99
2024-02-29T16:13:44.878Z,52.63
2024-02-29T16:16:16.080Z,53.59
2024-02-29T16:18:44.432Z,56.39
2024-02-29T16:21:14.256Z,56.99
2024-02-29T16:23:44.937Z,56.93
2024-02-29T16:26:14.864Z,58.88
2024-02-29T16:28:45.481Z,58.51
2024-02-29T16:31:16.281Z,59.22
2024-02-29T16:33:45.355Z,59.57
2024-02-29T16:36:15.055Z,60.31
2024-02-29T16:38:43.864Z,61.10
2024-02-29T16:41:15.491Z,60.77
2024-02-29T16:43:43.980Z,62.27
2024-02-29T16:46:12.671Z,62.07
2024-02-29T16:48:42.898Z,62.95
2024-02-29T16:51:12.869Z,63.96
2024-02-29T16:53:41.438Z,64.98
2024-02-29T16:56:10.438Z,64.74
2024-02-29T16:58:43.059Z,64.27
2024-02-29T17:01:11.969Z,64.63
2024-02-29T17:03:44.368Z,64.99
2024-02-29T17:06:13.497Z,65.98
2024-02-29T17:08:41.767Z,66.82
2024-02-29T17:11:10.816Z,66.89
2024-02-29T17:13:47.002Z,66.83
2024-02-29T17:16:15.736Z,67.96
2024-02-29T17:18:50.490Z,67.65
2024-02-29T17:21:19.937Z,67.41
2024-02-29T17:23:48.646Z,67.65
2024-02-29T17:26:20.515Z,68.23
2024-02-29T17:28:52.911Z,68.37
2024-02-29T17:31:23.463Z,67.92
2024-02-29T17:33:57.430Z,68.17
2024-02-29T17:36:47.802Z,68.34
2024-02-29T17:39:38.182Z,68.74
2024-02-29T17:42:29.656Z,69.04
2024-02-29T17:45:17.610Z,70.04
2024-02-29T17:48:05.542Z,70.10
2024-02-29T17:50:54.329Z,69.68
2024-02-29T17:53:50.977Z,69.74
2024-02-29T17:56:38.087Z,69.84
2024-02-29T17:59:25.913Z,70.14
2024-02-29T18:02:17.266Z,71.01
2024-02-29T18:05:10.619Z,71.39
2024-02-29T18:08:06.862Z,72.57
2024-02-29T18:10:59.150Z,72.20
2024-02-29T18:13:46.778Z,73.03
2024-02-29T18:16:36.223Z,73.34
2024-02-29T18:19:23.903Z,73.47
2024-02-29T18:22:11.479Z,74.70
2024-02-29T18:25:00.703Z,75.51
2024-02-29T18:27:50.844Z,75.29
2024-02-29T18:30:39.241Z,75.56
2024-02-29T18:33:27.565Z,75.22
2024-02-29T18:36:15.603Z,76.49
2024-02-29T18:39:04.585Z,77.08
2024-02-29T18:41:56.706Z,75.96
2024-02-29T18:44:45.862Z,76.10
2024-02-29T18:47:35.955Z,77.10
2024-02-29T18:50:29.607Z,77.08
2024-02-29T18:53:11.218Z,77.02
2024-02-29T18:55:44.099Z,76.68
2024-02-29T18:58:17.236Z,76.30
2024-02-29T19:00:48.337Z,76.57
2024-02-29T19:03:25.029Z,76.63
2024-02-29T19:05:56.372Z,76.86
2024-02-29T19:08:25.756Z,76.53
2024-02-29T19:10:58.794Z,76.25
2024-02-29T19:13:48.725Z,76.12
2024-02-29T19:16:18.910Z,76.73
2024-02-29T19:18:48.099Z,76.59
2024-02-29T19:21:17.192Z,76.27
2024-02-29T19:23:46.035Z,76.74
2024-02-29T19:26:24.266Z,76.40
2024-02-29T19:28:57.642Z,74.94
2024-02-29T19:31:27.615Z,74.86
2024-02-29T19:33:56.695Z,74.65
2024-02-29T19:36:28.968Z,73.86
2024-02-29T19:39:00.741Z,74.60
2024-02-29T19:41:35.464Z,73.34
2024-02-29T19:44:26.207Z,72.77
2024-02-29T19:46:59.018Z,70.88
2024-02-29T19:49:31.921Z,67.35
2024-02-29T19:52:03.074Z,65.22
2024-02-29T19:54:32.684Z,63.50
2024-02-29T19:57:01.646Z,62.82
2024-02-29T19:59:32.055Z,62.28
2024-02-29T20:02:01.513Z,61.74
2024-02-29T20:04:31.108Z,61.76
2024-02-29T20:07:10.435Z,63.75
2024-02-29T20:09:39.513Z,63.96
2024-02-29T20:12:18.120Z,67.29
2024-02-29T20:14:51.219Z,69.35
2024-02-29T20:17:25.866Z,71.08
2024-02-29T20:19:57.707Z,72.05
2024-02-29T20:22:28.660Z,71.73
2024-02-29T20:24:59.143Z,72.92
2024-02-29T20:27:28.175Z,73.40
2024-02-29T20:30:14.265Z,73.69
2024-02-29T20:32:45.364Z,73.49
2024-02-29T20:35:17.804Z,73.92
2024-02-29T20:37:47.058Z,74.13
2024-02-29T20:40:18.239Z,73.26
2024-02-29T20:42:47.710Z,74.09
2024-02-29T20:45:18.063Z,73.94
2024-02-29T20:47:47.417Z,74.46
2024-02-29T20:50:16.630Z,74.80
2024-02-29T20:52:45.929Z,74.73
2024-02-29T20:55:16.296Z,74.47
2024-02-29T20:57:49.796Z,74.91
2024-02-29T21:00:22.355Z,74.93
2024-02-29T21:02:52.267Z,75.24
2024-02-29T21:05:23.115Z,74.92
2024-02-29T21:07:56.994Z,75.70
2024-02-29T21:10:30.125Z,75.78
2024-02-29T21:13:02.085Z,76.39
2024-02-29T21:15:34.110Z,77.20
2024-02-29T21:18:04.907Z,77.46
2024-02-29T21:20:35.796Z,78.19
2024-02-29T21:23:10.839Z,78.65
2024-02-29T21:25:43.481Z,79.43
2024-02-29T21:28:16.834Z,79.63
2024-02-29T21:30:49.302Z,80.14
2024-02-29T21:33:21.697Z,80.63
2024-02-29T21:35:51.587Z,81.37
2024-02-29T21:38:20.563Z,81.06
2024-02-29T21:40:52.512Z,81.15
2024-02-29T21:43:26.975Z,81.89
2024-02-29T21:45:57.589Z,82.14
2024-02-29T21:48:26.828Z,82.37
2024-02-29T21:50:56.770Z,83.48
2024-02-29T21:53:31.430Z,83.95
2024-02-29T21:56:05.957Z,84.25
2024-02-29T21:58:43.312Z,84.05
2024-02-29T22:01:13.805Z,84.52
2024-02-29T22:03:43.443Z,85.25
2024-02-29T22:06:12.846Z,85.05
2024-02-29T22:08:46.618Z,85.93
2024-02-29T22:11:19.460Z,85.95
2024-02-29T22:13:48.093Z,85.73
2024-02-29T22:16:18.679Z,85.33
2024-02-29T22:18:48.464Z,85.53
2024-02-29T22:21:17.240Z,85.64
2024-02-29T22:23:45.717Z,86.01
2024-02-29T22:26:14.614Z,86.16
2024-02-29T22:28:43.918Z,86.52
2024-02-29T22:31:13.512Z,87.00
2024-02-29T22:33:53.826Z,87.85
2024-02-29T22:36:22.874Z,87.71
2024-02-29T22:38:51.524Z,88.29
2024-02-29T22:41:25.287Z,89.17
2024-02-29T22:43:54.047Z,89.69
2024-02-29T22:46:23.307Z,89.33
2024-02-29T22:48:54.392Z,90.18
2024-02-29T22:51:27.288Z,90.65
2024-02-29T22:53:56.277Z,91.14
2024-02-29T22:56:26.537Z,91.97
2024-02-29T22:58:55.248Z,92.87
2024-02-29T23:01:27.368Z,92.65
2024-02-29T23:03:59.416Z,92.83
2024-02-29T23:06:31.512Z,92.78
2024-02-29T23:09:10.577Z,93.78
2024-02-29T23:11:44.886Z,93.19
2024-02-29T23:14:20.530Z,93.68
2024-02-29T23:16:52.493Z,92.98
2024-02-29T23:19:25.816Z,92.97
2024-02-29T23:22:05.597Z,92.47
2024-02-29T23:24:34.874Z,92.99
2024-02-29T23:27:04.352Z,92.57
2024-02-29T23:29:32.933Z,92.84
2024-02-29T23:32:01.555Z,92.09
2024-02-29T23:34:46.077Z,92.80
2024-02-29T23:37:15.203Z,93.62
2024-02-29T23:39:44.102Z,93.80
2024-02-29T23:42:13.025Z,93.74
2024-02-29T23:44:44.562Z,93.15
2024-02-29T23:47:13.649Z,92.92
2024-02-29T23:49:44.261Z,93.12
2024-02-29T23:52:13.275Z,94.07
2024-02-29T23:54:42.045Z,93.45
2024-02-29T23:57:10.577Z,93.89
2024-02-29T23:59:45.323Z,93.90
